Airfield :
LOGIN :

Register | Disclaimer

   EN    FR    IT 

 










Legend :    VFR   Marginal VFR   IFR   Intensive IFR   Very Intensive IFR
Visi :
Ceiling :
>= 8 km
>= 3000ft
5 to 8 km
1000 to 3000 ft
1500m to 5 km
500 to 1000 ft
800 to 1500m
200 to 500 ft
< 800m
< 200 ft
Symbols :   Thunderstorms  Fog  Heavy snow  Heavy precipitations  Wind > 20 kt
SIGMETs :     Misc.  Thunderstorms  Icing  Turbulence  Mountain Waves  Volcanic Ashes






- Airport Elevation : 1460 ft


LSMA - Alpnach

CURRENT METAR :
  • 281950Z AUTO 36008KT 320V040 9999NDV BKN066 BKN100 18/06 Q1025 RMK

EXPIRED METARs :
  • 281920Z AUTO 03010G24KT 320V070 9999NDV SCT073 BKN100 19/08 Q1024 RMK
  • 281850Z AUTO 04014G27KT 340V080 9999NDV SCT100 19/08 Q1024 RMK
  • 281820Z AUTO 05008KT 360V100 9999NDV BKN100 20/06 Q1024 RMK
  • 281750Z AUTO 04009KT 9999NDV BKN110 20/08 Q1024 RMK
  • 281720Z AUTO 04011KT 010V070 9999NDV SCT110 21/06 Q1024 RMK

Expired Forecast.



MET'MAP, your aeronautical weather chart ! - Copyright ORBIFLY December 2007 - Disclaimer

ORBIFLY MET'MAP TEAM :

Programming & Development : Alexandra Zaïnal
Concept & original design : Baudouin d'Aumeries
Assistance for programming : Marc-Olivier Méhu
Technical & hardware support : Manuel Goepfert

Contact : metmap@orbifly.com




SOURCES & CREDITS :

   NOAA